Sibley, IA

1:35 PM CDT on April 19, 2015 (GMT -0500)
APRSWXNET | | Change Station
CLOSE
Current Station
Personal Weather Station
Location: Ashton, IA
Elevation: 1469 ft
Nearby Weather Stations

Elev 1469 ft 43.31 °N, 95.79 °W | Updated 30 minutes ago

Overcast
Overcast
48 °F
Feels Like 45 °F
N
7
Wind Variable Wind from NW
Gusts 0.0 mph

Today
High -- | Low -- °F
--% Chance of Precip.
Yesterday
High -- | Low -- °F
Precip. -- in
6:34 AM 8:10 PM
New Moon, 1% visible
Pressure 29.72 in
Visibility 10.0 miles
Clouds Mostly Cloudy 1300 ft
Mostly Cloudy 2100 ft
Overcast 3300 ft
Windchill 45 °F
Dew Point 45 °F
Humidity 90%
Rainfall in
Snow Depth Not available.
UV 3 out of 12
Pollen 9.50 out of 12
Air Quality Not available.
Flu Activity Local Activity
METAR KSHL 191815Z AUTO 34016G25KT 10SM BKN013 BKN021 OVC033 10/10 A2972 RMK AO2

More Conditions Fewer Conditions

Pressure 29.72 in
Visibility 10.0 miles
Clouds Mostly Cloudy 1300 ft
Mostly Cloudy 2100 ft
Overcast 3300 ft
Windchill 45 °F
Dew Point 45 °F
Humidity 90%
Rainfall in
Snow Depth Not available.
UV 3 out of 12
Pollen 9.50 out of 12
Air Quality Not available.
Flu Activity Local Activity
METAR KSHL 191815Z AUTO 34016G25KT 10SM BKN013 BKN021 OVC033 10/10 A2972 RMK AO2

More Conditions Fewer Conditions

10-Day Weather Forecast

Almanac

Astronomy

Apr. 19, 2015 Rise Set
Actual Time
Civil Twilight
Nautical Twilight
Astronomical Twilight
Moon
Length of Visible Light
Length of Day
Tomorrow will be .
, % of the Moon is Illuminated

Today's Extremes

State Highs State Lows

Community

WunderPhotos

Upload Photos

1,814,900 photos uploaded!

WunderBlogs® & News

Nearby

Air Quality

  Air Quality AQ Index Pollutant
Not available.

Snow Depth

Station Depth Elevation

Earthquake Activity

City Distance Mag. Time & Date
Minimum magnitude displayed is 2.5.

Coastal Water Temperatures

Place Temperature

Stations

Nearby Weather Stations

Station Location Temp. Windchill Dew Point Humidity Wind Precip. Elev Updated Type